Akita, Japan

7:25 AM JST on July 25, 2016 (GMT +0900)
Choro's House | | Change Station

Elev 43 ft 39.84 °N, 140.03 °E | Updated 5 seconds ago

Partly Cloudy
Partly Cloudy
77.2 °F
Feels Like 79 °F
N
5.1
Wind Variable Wind from ENE
Gusts 7.4 mph

Today
High -- | Low -- °F
--% Chance of Precip.
Yesterday
High -- | Low -- °F
Precip. -- in
Pressure 29.95 in
Visibility 6.2 miles
Clouds Few 2000 ft
Heat Index 79 °F
Dew Point 72 °F
Humidity 83%
Rainfall 0.00 in
Snow Depth Not available.
4:32 AM 6:59 PM
Waning Gibbous, 72% visible
METAR RJSK 242200Z 13007KT 100V160 9999 FEW020 BKN/// 23/17 Q1014
Pressure 29.95 in
Visibility 6.2 miles
Clouds Few 2000 ft
Heat Index 79 °F
Dew Point 72 °F
Humidity 83%
Rainfall 0.00 in
Snow Depth Not available.
4:32 AM 6:59 PM
Waning Gibbous, 72% visible
METAR RJSK 242200Z 13007KT 100V160 9999 FEW020 BKN/// 23/17 Q1014

10-Day Weather Forecast

No radar image for this location.
×

Almanac

Astronomy

Jul. 25, 2016 Rise Set
Actual Time
Civil Twilight
Nautical Twilight
Astronomical Twilight
Moon
Length of Visible Light
Length of Day
Tomorrow will be .
, % of the Moon is Illuminated

Today's Extremes

Country Highs Country Lows

Community

WunderPhotos

Upload Photos

1,927,203 photos uploaded!

WunderBlog® & News

Nearby

Air Quality

  Air Quality AQ Index Pollutant
Not available.

Snow Depth

Station Depth Elevation

Earthquake Activity

City Distance Mag. Time & Date
Minimum magnitude displayed is 2.5.

Coastal Water Temperatures

Place Temperature

Stations

Nearby Weather Stations

Station Location Temp. Windchill Dew Point Humidity Wind Precip. Elev Updated Type